Hong Xiang 2 — BYBA — position and weather

sailwx.info

Track history (hours):
 
Tides and Currents Weather Stations Pressure Air Temp Water Temp Dewpoint Dewpoint Depression Visibility Wind Speed Wind Dir Waves Ship Positions

Hong Xiang 2

Last reported at 2016-Dec-02 05:25 UTC. Time now 2016-Dec-02 18:06 UTC.
Position N 29°46' E 122°27'.

Length 96 m; draft 5.2 m.

Type: Ship (hazmat cat A). MMSI: 413413000.

Date/timePositionNaut miles runAvg speedWind from/ knotsBaromVisibWave heightAir tempDewpointWater temp
2016-Dec-02 05:25N 29°46' E 122°27'16 8.6
2016-Dec-02 03:32N 30°02' E 122°32'10 6.8
2016-Dec-02 02:03N 30°07' E 122°23'5 7.4
2016-Dec-02 01:22N 30°07' E 122°17'5 0.3
2016-Dec-01 06:18N 30°07' E 122°11'4 5.3
2016-Dec-01 05:30N 30°08' E 122°16'0 0.1
2016-Dec-01 04:33N 30°09' E 122°16'0 0.0
2016-Dec-01 02:09N 30°09' E 122°16'0 0.0
2016-Dec-01 00:15N 30°09' E 122°16'0 0.1
2016-Nov-30 23:30N 30°08' E 122°16'0 0.1
2016-Nov-30 22:30N 30°08' E 122°16'0 0.0
2016-Nov-30 20:24N 30°08' E 122°16'0 0.0
2016-Nov-30 19:24N 30°08' E 122°16'0 0.0
2016-Nov-30 18:30N 30°08' E 122°16'0 0.0
2016-Nov-30 17:33N 30°08' E 122°16'0 0.0
2016-Nov-30 14:31N 30°09' E 122°16'0 0.0
2016-Nov-30 01:21N 30°09' E 122°16'0 0.0
2016-Nov-30 00:27N 30°09' E 122°16'0 0.0
2016-Nov-29 16:12N 30°08' E 122°16'0 0.0
2016-Nov-29 13:15N 30°09' E 122°16'0 0.0
2016-Nov-29 12:34N 30°09' E 122°16'0 0.0
2016-Nov-29 07:30N 30°08' E 122°16'0 0.0
2016-Nov-29 01:09N 30°09' E 122°16'0 0.0
2016-Nov-28 18:33N 30°08' E 122°16'0 0.0
2016-Nov-28 17:06N 30°08' E 122°16'0 0.1
2016-Nov-28 16:30N 30°08' E 122°16'0 0.1
2016-Nov-28 15:12N 30°08' E 122°16'0 0.1
2016-Nov-28 14:18N 30°08' E 122°16'0 0.0
2016-Nov-28 12:33N 30°08' E 122°16'0 0.0
2016-Nov-28 09:27N 30°08' E 122°16'0 0.1
2016-Nov-28 08:30N 30°08' E 122°16'0 0.0
2016-Nov-28 07:24N 30°08' E 122°16'0 0.0
2016-Nov-28 06:06N 30°08' E 122°16'0 0.1
2016-Nov-28 05:30N 30°08' E 122°16'0 0.0
2016-Nov-28 04:30N 30°08' E 122°16'0 0.0
2016-Nov-28 03:12N 30°08' E 122°16'0 0.1
2016-Nov-28 02:10N 30°09' E 122°16'0 0.0
2016-Nov-28 01:28N 30°09' E 122°16'0 0.0
2016-Nov-28 00:27N 30°09' E 122°16'0 0.0
2016-Nov-27 23:09N 30°09' E 122°16'0 0.0
2016-Nov-27 17:30N 30°08' E 122°16'0 0.0
2016-Nov-27 16:30N 30°08' E 122°16'0 0.1
2016-Nov-27 15:30N 30°08' E 122°16'0 0.1
2016-Nov-27 14:18N 30°09' E 122°16'0 0.0
2016-Nov-27 13:06N 30°09' E 122°16'0 0.0
2016-Nov-27 12:24N 30°09' E 122°16'0 0.1
2016-Nov-27 11:22N 30°09' E 122°16'0 0.1
2016-Nov-27 09:18N 30°08' E 122°16'0 0.0
2016-Nov-27 07:18N 30°08' E 122°16'1 0.7
2016-Nov-27 06:33N 30°08' E 122°17'8 7.4
2016-Nov-27 05:24N 30°07' E 122°26'6 6.9
2016-Nov-27 04:33N 30°03' E 122°31'7 7.0
2016-Nov-27 03:32N 29°56' E 122°32'9 8.3
2016-Nov-27 02:27N 29°48' E 122°28'7 7.5
2016-Nov-27 01:30N 29°41' E 122°25'334 7.5
2016-Nov-25 05:09N 24°56' E 119°09'5 7.8
2016-Nov-25 04:34N 24°53' E 119°05'7 7.3
2016-Nov-25 03:33N 24°48' E 118°59'7 6.7
2016-Nov-25 02:33N 24°45' E 118°53'6 6.4
2016-Nov-25 01:33N 24°40' E 118°48'14 6.7
2016-Nov-24 23:26N 24°29' E 118°38'6 7.3
2016-Nov-24 22:33N 24°24' E 118°34'8 7.9
2016-Nov-24 21:33N 24°18' E 118°28'8 7.5
2016-Nov-24 20:33N 24°13' E 118°22'8 7.6
2016-Nov-24 19:33N 24°08' E 118°16'10 7.7
2016-Nov-24 18:15N 24°01' E 118°07'6 6.9
2016-Nov-24 17:24N 23°58' E 118°02'23 5.9
2016-Nov-24 13:33N 23°44' E 117°43'6 5.8
2016-Nov-24 12:33N 23°41' E 117°38'46 7.6
2016-Nov-24 06:32N 23°18' E 116°54'8 8.4
2016-Nov-24 05:33N 23°20' E 116°45'1110.8
2016-Nov-24 04:34N 23°23' E 116°34'0 0.0
2016-Nov-23 00:28N 23°23' E 116°34'8 8.5
2016-Nov-22 23:31N 23°21' E 116°42'9 8.1
2016-Nov-22 22:26N 23°16' E 116°50'46 3.3
2016-Nov-22 08:31N 23°38' E 117°35'1010.1
2016-Nov-22 07:33N 23°44' E 117°43'2010.0
2016-Nov-22 05:32N 23°57' E 118°00'  
Track history (hours):
 
Tides and Currents Weather Stations Pressure Air Temp Water Temp Dewpoint Dewpoint Depression Visibility Wind Speed Wind Dir Waves Ship Positions

Hong Xiang 2

Last reported at 2016-Dec-02 05:25 UTC. Time now 2016-Dec-02 18:06 UTC.
Position N 29°46' E 122°27'.

Length 96 m; draft 5.2 m.

Type: Ship (hazmat cat A). MMSI: 413413000.

Date/timePositionNaut miles runAvg speedWind from/ knotsBaromVisibWave heightAir tempDewpointWater temp
2016-Dec-02 05:25N 29°46' E 122°27'16 8.6
2016-Dec-02 03:32N 30°02' E 122°32'10 6.8
2016-Dec-02 02:03N 30°07' E 122°23'5 7.4
2016-Dec-02 01:22N 30°07' E 122°17'5 0.3
2016-Dec-01 06:18N 30°07' E 122°11'4 5.3
2016-Dec-01 05:30N 30°08' E 122°16'0 0.1
2016-Dec-01 04:33N 30°09' E 122°16'0 0.0
2016-Dec-01 02:09N 30°09' E 122°16'0 0.0
2016-Dec-01 00:15N 30°09' E 122°16'0 0.1
2016-Nov-30 23:30N 30°08' E 122°16'0 0.1
2016-Nov-30 22:30N 30°08' E 122°16'0 0.0
2016-Nov-30 20:24N 30°08' E 122°16'0 0.0
2016-Nov-30 19:24N 30°08' E 122°16'0 0.0
2016-Nov-30 18:30N 30°08' E 122°16'0 0.0
2016-Nov-30 17:33N 30°08' E 122°16'0 0.0
2016-Nov-30 14:31N 30°09' E 122°16'0 0.0
2016-Nov-30 01:21N 30°09' E 122°16'0 0.0
2016-Nov-30 00:27N 30°09' E 122°16'0 0.0
2016-Nov-29 16:12N 30°08' E 122°16'0 0.0
2016-Nov-29 13:15N 30°09' E 122°16'0 0.0
2016-Nov-29 12:34N 30°09' E 122°16'0 0.0
2016-Nov-29 07:30N 30°08' E 122°16'0 0.0
2016-Nov-29 01:09N 30°09' E 122°16'0 0.0
2016-Nov-28 18:33N 30°08' E 122°16'0 0.0
2016-Nov-28 17:06N 30°08' E 122°16'0 0.1
2016-Nov-28 16:30N 30°08' E 122°16'0 0.1
2016-Nov-28 15:12N 30°08' E 122°16'0 0.1
2016-Nov-28 14:18N 30°08' E 122°16'0 0.0
2016-Nov-28 12:33N 30°08' E 122°16'0 0.0
2016-Nov-28 09:27N 30°08' E 122°16'0 0.1
2016-Nov-28 08:30N 30°08' E 122°16'0 0.0
2016-Nov-28 07:24N 30°08' E 122°16'0 0.0
2016-Nov-28 06:06N 30°08' E 122°16'0 0.1
2016-Nov-28 05:30N 30°08' E 122°16'0 0.0
2016-Nov-28 04:30N 30°08' E 122°16'0 0.0
2016-Nov-28 03:12N 30°08' E 122°16'0 0.1
2016-Nov-28 02:10N 30°09' E 122°16'0 0.0
2016-Nov-28 01:28N 30°09' E 122°16'0 0.0
2016-Nov-28 00:27N 30°09' E 122°16'0 0.0
2016-Nov-27 23:09N 30°09' E 122°16'0 0.0
2016-Nov-27 17:30N 30°08' E 122°16'0 0.0
2016-Nov-27 16:30N 30°08' E 122°16'0 0.1
2016-Nov-27 15:30N 30°08' E 122°16'0 0.1
2016-Nov-27 14:18N 30°09' E 122°16'0 0.0
2016-Nov-27 13:06N 30°09' E 122°16'0 0.0
2016-Nov-27 12:24N 30°09' E 122°16'0 0.1
2016-Nov-27 11:22N 30°09' E 122°16'0 0.1
2016-Nov-27 09:18N 30°08' E 122°16'0 0.0
2016-Nov-27 07:18N 30°08' E 122°16'1 0.7
2016-Nov-27 06:33N 30°08' E 122°17'8 7.4
2016-Nov-27 05:24N 30°07' E 122°26'6 6.9
2016-Nov-27 04:33N 30°03' E 122°31'7 7.0
2016-Nov-27 03:32N 29°56' E 122°32'9 8.3
2016-Nov-27 02:27N 29°48' E 122°28'7 7.5
2016-Nov-27 01:30N 29°41' E 122°25'334 7.5
2016-Nov-25 05:09N 24°56' E 119°09'5 7.8
2016-Nov-25 04:34N 24°53' E 119°05'7 7.3
2016-Nov-25 03:33N 24°48' E 118°59'7 6.7
2016-Nov-25 02:33N 24°45' E 118°53'6 6.4
2016-Nov-25 01:33N 24°40' E 118°48'14 6.7
2016-Nov-24 23:26N 24°29' E 118°38'6 7.3
2016-Nov-24 22:33N 24°24' E 118°34'8 7.9
2016-Nov-24 21:33N 24°18' E 118°28'8 7.5
2016-Nov-24 20:33N 24°13' E 118°22'8 7.6
2016-Nov-24 19:33N 24°08' E 118°16'10 7.7
2016-Nov-24 18:15N 24°01' E 118°07'6 6.9
2016-Nov-24 17:24N 23°58' E 118°02'23 5.9
2016-Nov-24 13:33N 23°44' E 117°43'6 5.8
2016-Nov-24 12:33N 23°41' E 117°38'46 7.6
2016-Nov-24 06:32N 23°18' E 116°54'8 8.4
2016-Nov-24 05:33N 23°20' E 116°45'1110.8
2016-Nov-24 04:34N 23°23' E 116°34'0 0.0
2016-Nov-23 00:28N 23°23' E 116°34'8 8.5
2016-Nov-22 23:31N 23°21' E 116°42'9 8.1
2016-Nov-22 22:26N 23°16' E 116°50'46 3.3
2016-Nov-22 08:31N 23°38' E 117°35'1010.1
2016-Nov-22 07:33N 23°44' E 117°43'2010.0
2016-Nov-22 05:32N 23°57' E 118°00'  

Dump ship's entire track history